sensor_id;sensor_type;location;lat;lon;timestamp;temperature;humidity
580;DHT22;276;48.392;9.950;2023-09-18T00:00:49;20.70;99.90
580;DHT22;276;48.392;9.950;2023-09-18T00:03:16;20.70;99.90
580;DHT22;276;48.392;9.950;2023-09-18T00:05:50;20.70;99.90
580;DHT22;276;48.392;9.950;2023-09-18T00:08:19;20.70;99.90
580;DHT22;276;48.392;9.950;2023-09-18T00:10:54;20.70;99.90
580;DHT22;276;48.392;9.950;2023-09-18T00:13:20;20.70;99.90
580;DHT22;276;48.392;9.950;2023-09-18T00:15:46;20.60;99.90
580;DHT22;276;48.392;9.950;2023-09-18T00:18:15;20.60;99.90
580;DHT22;276;48.392;9.950;2023-09-18T00:20:46;20.60;99.90
580;DHT22;276;48.392;9.950;2023-09-18T00:23:13;20.60;99.90
580;DHT22;276;48.392;9.950;2023-09-18T00:25:45;20.60;99.90
580;DHT22;276;48.392;9.950;2023-09-18T00:28:15;20.60;99.90
580;DHT22;276;48.392;9.950;2023-09-18T00:30:47;20.60;99.90
580;DHT22;276;48.392;9.950;2023-09-18T00:33:16;20.60;99.90
580;DHT22;276;48.392;9.950;2023-09-18T00:35:50;20.50;99.90
580;DHT22;276;48.392;9.950;2023-09-18T00:38:19;20.50;99.90
580;DHT22;276;48.392;9.950;2023-09-18T00:40:45;20.50;99.90
580;DHT22;276;48.392;9.950;2023-09-18T00:43:13;20.50;99.90
580;DHT22;276;48.392;9.950;2023-09-18T00:45:42;20.50;99.90
580;DHT22;276;48.392;9.950;2023-09-18T00:48:10;20.50;99.90
580;DHT22;276;48.392;9.950;2023-09-18T00:50:36;20.50;99.90
580;DHT22;276;48.392;9.950;2023-09-18T00:53:06;20.50;99.90
580;DHT22;276;48.392;9.950;2023-09-18T00:55:32;20.40;99.90
580;DHT22;276;48.392;9.950;2023-09-18T00:57:58;20.40;99.90
580;DHT22;276;48.392;9.950;2023-09-18T01:00:24;20.30;99.90
580;DHT22;276;48.392;9.950;2023-09-18T01:02:50;20.30;99.90
580;DHT22;276;48.392;9.950;2023-09-18T01:05:15;20.30;99.90
580;DHT22;276;48.392;9.950;2023-09-18T01:07:45;20.30;99.90
580;DHT22;276;48.392;9.950;2023-09-18T01:10:11;20.30;99.90
580;DHT22;276;48.392;9.950;2023-09-18T01:12:48;20.30;99.90
580;DHT22;276;48.392;9.950;2023-09-18T01:15:29;20.30;99.90
580;DHT22;276;48.392;9.950;2023-09-18T01:17:58;20.20;99.90
580;DHT22;276;48.392;9.950;2023-09-18T01:20:26;20.20;99.90
580;DHT22;276;48.392;9.950;2023-09-18T01:22:53;20.20;99.90
580;DHT22;276;48.392;9.950;2023-09-18T01:25:20;20.20;99.90
580;DHT22;276;48.392;9.950;2023-09-18T01:27:48;20.20;99.90
580;DHT22;276;48.392;9.950;2023-09-18T01:30:16;20.20;99.90
580;DHT22;276;48.392;9.950;2023-09-18T01:32:43;20.20;99.90
580;DHT22;276;48.392;9.950;2023-09-18T01:35:14;20.20;99.90
580;DHT22;276;48.392;9.950;2023-09-18T01:37:41;20.20;99.90
580;DHT22;276;48.392;9.950;2023-09-18T01:40:08;20.20;99.90
580;DHT22;276;48.392;9.950;2023-09-18T01:42:37;20.30;99.90
580;DHT22;276;48.392;9.950;2023-09-18T01:45:04;20.30;99.90
580;DHT22;276;48.392;9.950;2023-09-18T01:47:35;20.30;99.90
580;DHT22;276;48.392;9.950;2023-09-18T01:50:07;20.40;99.90
580;DHT22;276;48.392;9.950;2023-09-18T01:52:38;20.40;99.90
580;DHT22;276;48.392;9.950;2023-09-18T01:55:06;20.40;99.90
580;DHT22;276;48.392;9.950;2023-09-18T01:57:33;20.40;99.90
580;DHT22;276;48.392;9.950;2023-09-18T01:59:58;20.40;99.90
580;DHT22;276;48.392;9.950;2023-09-18T02:02:27;20.40;99.90
580;DHT22;276;48.392;9.950;2023-09-18T02:04:53;20.40;99.90
580;DHT22;276;48.392;9.950;2023-09-18T02:07:18;20.40;99.90
580;DHT22;276;48.392;9.950;2023-09-18T02:09:46;20.40;99.90
580;DHT22;276;48.392;9.950;2023-09-18T02:12:14;20.40;99.90
580;DHT22;276;48.392;9.950;2023-09-18T02:14:44;20.50;99.90
580;DHT22;276;48.392;9.950;2023-09-18T02:17:12;20.50;99.90
580;DHT22;276;48.392;9.950;2023-09-18T02:19:40;20.50;99.90
580;DHT22;276;48.392;9.950;2023-09-18T02:22:06;20.50;99.90
580;DHT22;276;48.392;9.950;2023-09-18T02:24:32;20.50;99.90
580;DHT22;276;48.392;9.950;2023-09-18T02:27:00;20.50;99.90
580;DHT22;276;48.392;9.950;2023-09-18T02:29:28;20.50;99.90
580;DHT22;276;48.392;9.950;2023-09-18T02:31:58;20.50;99.90
580;DHT22;276;48.392;9.950;2023-09-18T02:34:26;20.50;99.90
580;DHT22;276;48.392;9.950;2023-09-18T02:36:54;20.50;99.90
580;DHT22;276;48.392;9.950;2023-09-18T02:39:20;20.50;99.90
580;DHT22;276;48.392;9.950;2023-09-18T02:41:48;20.50;99.90
580;DHT22;276;48.392;9.950;2023-09-18T02:44:16;20.50;99.90
580;DHT22;276;48.392;9.950;2023-09-18T02:46:43;20.50;99.90
580;DHT22;276;48.392;9.950;2023-09-18T02:49:11;20.40;99.90
580;DHT22;276;48.392;9.950;2023-09-18T02:51:37;20.50;99.90
580;DHT22;276;48.392;9.950;2023-09-18T02:54:05;20.50;99.90
580;DHT22;276;48.392;9.950;2023-09-18T02:56:30;20.40;99.90
580;DHT22;276;48.392;9.950;2023-09-18T02:59:01;20.40;99.90
580;DHT22;276;48.392;9.950;2023-09-18T03:01:29;20.40;99.90
580;DHT22;276;48.392;9.950;2023-09-18T03:03:54;20.40;99.90
580;DHT22;276;48.392;9.950;2023-09-18T03:06:20;20.30;99.90
580;DHT22;276;48.392;9.950;2023-09-18T03:08:48;20.30;99.90
580;DHT22;276;48.392;9.950;2023-09-18T03:11:14;20.30;99.90
580;DHT22;276;48.392;9.950;2023-09-18T03:13:46;20.30;99.90
580;DHT22;276;48.392;9.950;2023-09-18T03:16:13;20.30;99.90
580;DHT22;276;48.392;9.950;2023-09-18T03:18:39;20.30;99.90
580;DHT22;276;48.392;9.950;2023-09-18T03:21:04;20.20;99.90
580;DHT22;276;48.392;9.950;2023-09-18T03:23:34;20.20;99.90
580;DHT22;276;48.392;9.950;2023-09-18T03:26:00;20.20;99.90
580;DHT22;276;48.392;9.950;2023-09-18T03:28:28;20.20;99.90
580;DHT22;276;48.392;9.950;2023-09-18T03:30:57;20.20;99.90
580;DHT22;276;48.392;9.950;2023-09-18T03:33:25;20.20;99.90
580;DHT22;276;48.392;9.950;2023-09-18T03:35:53;20.20;99.90
580;DHT22;276;48.392;9.950;2023-09-18T03:38:26;20.20;99.90
580;DHT22;276;48.392;9.950;2023-09-18T03:40:55;20.10;99.90
580;DHT22;276;48.392;9.950;2023-09-18T03:43:23;20.10;99.90
580;DHT22;276;48.392;9.950;2023-09-18T03:45:51;20.10;99.90
580;DHT22;276;48.392;9.950;2023-09-18T03:48:17;20.10;99.90
580;DHT22;276;48.392;9.950;2023-09-18T03:50:48;20.10;99.90
580;DHT22;276;48.392;9.950;2023-09-18T03:53:13;20.10;99.90
580;DHT22;276;48.392;9.950;2023-09-18T03:55:39;20.00;99.90
580;DHT22;276;48.392;9.950;2023-09-18T03:58:07;20.00;99.90
580;DHT22;276;48.392;9.950;2023-09-18T04:00:33;20.00;99.90
580;DHT22;276;48.392;9.950;2023-09-18T04:03:01;20.00;99.90
580;DHT22;276;48.392;9.950;2023-09-18T04:05:30;20.10;99.90
580;DHT22;276;48.392;9.950;2023-09-18T04:07:55;20.10;99.90
580;DHT22;276;48.392;9.950;2023-09-18T04:10:23;20.10;99.90
580;DHT22;276;48.392;9.950;2023-09-18T04:12:51;20.10;99.90
580;DHT22;276;48.392;9.950;2023-09-18T04:15:20;20.10;99.90
580;DHT22;276;48.392;9.950;2023-09-18T04:17:48;20.10;99.90
580;DHT22;276;48.392;9.950;2023-09-18T04:20:16;20.10;99.90
580;DHT22;276;48.392;9.950;2023-09-18T04:22:46;20.10;99.90
580;DHT22;276;48.392;9.950;2023-09-18T04:25:18;20.10;99.90
580;DHT22;276;48.392;9.950;2023-09-18T04:27:44;20.10;99.90
580;DHT22;276;48.392;9.950;2023-09-18T04:30:15;20.20;99.90
580;DHT22;276;48.392;9.950;2023-09-18T04:32:43;20.20;99.90
580;DHT22;276;48.392;9.950;2023-09-18T04:35:13;20.20;99.90
580;DHT22;276;48.392;9.950;2023-09-18T04:37:39;20.20;99.90
580;DHT22;276;48.392;9.950;2023-09-18T04:40:06;20.20;99.90
580;DHT22;276;48.392;9.950;2023-09-18T04:42:35;20.20;99.90
580;DHT22;276;48.392;9.950;2023-09-18T04:45:03;20.20;99.90
580;DHT22;276;48.392;9.950;2023-09-18T04:47:31;20.20;99.90
580;DHT22;276;48.392;9.950;2023-09-18T04:49:59;20.20;99.90
580;DHT22;276;48.392;9.950;2023-09-18T04:52:25;20.20;99.90
580;DHT22;276;48.392;9.950;2023-09-18T04:54:51;20.20;99.90
580;DHT22;276;48.392;9.950;2023-09-18T04:57:22;20.10;99.90
580;DHT22;276;48.392;9.950;2023-09-18T04:59:47;20.20;99.90
580;DHT22;276;48.392;9.950;2023-09-18T05:02:13;20.20;99.90
580;DHT22;276;48.392;9.950;2023-09-18T05:04:38;20.10;99.90
580;DHT22;276;48.392;9.950;2023-09-18T05:07:06;20.10;99.90
580;DHT22;276;48.392;9.950;2023-09-18T05:09:32;20.10;99.90
580;DHT22;276;48.392;9.950;2023-09-18T05:11:58;20.10;99.90
580;DHT22;276;48.392;9.950;2023-09-18T05:14:23;20.10;99.90
580;DHT22;276;48.392;9.950;2023-09-18T05:16:51;20.00;99.90
580;DHT22;276;48.392;9.950;2023-09-18T05:19:22;20.00;99.90
580;DHT22;276;48.392;9.950;2023-09-18T05:21:50;20.00;99.90
580;DHT22;276;48.392;9.950;2023-09-18T05:24:17;20.00;99.90
580;DHT22;276;48.392;9.950;2023-09-18T05:26:51;20.00;99.90
580;DHT22;276;48.392;9.950;2023-09-18T05:29:19;20.00;99.90
580;DHT22;276;48.392;9.950;2023-09-18T05:31:47;20.00;99.90
580;DHT22;276;48.392;9.950;2023-09-18T05:34:15;20.00;99.90
580;DHT22;276;48.392;9.950;2023-09-18T05:36:41;20.00;99.90
580;DHT22;276;48.392;9.950;2023-09-18T05:39:06;20.00;99.90
580;DHT22;276;48.392;9.950;2023-09-18T05:41:39;20.00;99.90
580;DHT22;276;48.392;9.950;2023-09-18T05:44:05;20.00;99.90
580;DHT22;276;48.392;9.950;2023-09-18T05:46:35;20.10;99.90
580;DHT22;276;48.392;9.950;2023-09-18T05:49:01;20.00;99.90
580;DHT22;276;48.392;9.950;2023-09-18T05:51:29;20.10;99.90
580;DHT22;276;48.392;9.950;2023-09-18T05:53:57;20.00;99.90
580;DHT22;276;48.392;9.950;2023-09-18T05:56:25;20.00;99.90
580;DHT22;276;48.392;9.950;2023-09-18T05:58:50;20.10;99.90
580;DHT22;276;48.392;9.950;2023-09-18T06:01:20;20.10;99.90
580;DHT22;276;48.392;9.950;2023-09-18T06:03:48;20.20;99.90
580;DHT22;276;48.392;9.950;2023-09-18T06:06:14;20.20;99.90
580;DHT22;276;48.392;9.950;2023-09-18T06:08:40;20.30;99.90
580;DHT22;276;48.392;9.950;2023-09-18T06:11:05;20.40;99.90
580;DHT22;276;48.392;9.950;2023-09-18T06:13:31;20.40;99.90
580;DHT22;276;48.392;9.950;2023-09-18T06:15:57;20.50;99.90
580;DHT22;276;48.392;9.950;2023-09-18T06:18:24;20.50;99.90
580;DHT22;276;48.392;9.950;2023-09-18T06:20:53;20.50;99.90
580;DHT22;276;48.392;9.950;2023-09-18T06:23:19;20.60;99.90
580;DHT22;276;48.392;9.950;2023-09-18T06:25:44;20.60;99.90
580;DHT22;276;48.392;9.950;2023-09-18T06:28:10;20.70;99.90
580;DHT22;276;48.392;9.950;2023-09-18T06:30:36;20.70;99.90
580;DHT22;276;48.392;9.950;2023-09-18T06:33:02;20.70;99.90
580;DHT22;276;48.392;9.950;2023-09-18T06:35:30;20.70;99.90
580;DHT22;276;48.392;9.950;2023-09-18T06:38:00;20.70;99.90
580;DHT22;276;48.392;9.950;2023-09-18T06:40:30;20.60;99.90
580;DHT22;276;48.392;9.950;2023-09-18T06:43:02;20.60;99.90
580;DHT22;276;48.392;9.950;2023-09-18T06:45:27;20.60;99.90
580;DHT22;276;48.392;9.950;2023-09-18T06:47:53;20.50;99.90
580;DHT22;276;48.392;9.950;2023-09-18T06:50:19;20.50;99.90
580;DHT22;276;48.392;9.950;2023-09-18T06:52:49;20.60;99.90
580;DHT22;276;48.392;9.950;2023-09-18T06:55:22;20.50;99.90
580;DHT22;276;48.392;9.950;2023-09-18T06:57:52;20.50;99.90
580;DHT22;276;48.392;9.950;2023-09-18T07:00:18;20.50;99.90
580;DHT22;276;48.392;9.950;2023-09-18T07:02:46;20.60;99.90
580;DHT22;276;48.392;9.950;2023-09-18T07:05:12;20.60;99.90
580;DHT22;276;48.392;9.950;2023-09-18T07:07:40;20.70;99.90
580;DHT22;276;48.392;9.950;2023-09-18T07:10:06;20.70;99.90
580;DHT22;276;48.392;9.950;2023-09-18T07:12:31;20.70;99.90
580;DHT22;276;48.392;9.950;2023-09-18T07:15:02;20.70;99.90
580;DHT22;276;48.392;9.950;2023-09-18T07:17:31;20.70;99.90
580;DHT22;276;48.392;9.950;2023-09-18T07:19:59;20.80;99.90
580;DHT22;276;48.392;9.950;2023-09-18T07:22:33;20.80;99.90
580;DHT22;276;48.392;9.950;2023-09-18T07:25:01;20.90;99.90
580;DHT22;276;48.392;9.950;2023-09-18T07:27:32;20.90;99.90
580;DHT22;276;48.392;9.950;2023-09-18T07:29:58;21.00;99.90
580;DHT22;276;48.392;9.950;2023-09-18T07:32:26;21.10;99.90
580;DHT22;276;48.392;9.950;2023-09-18T07:34:54;21.20;99.90
580;DHT22;276;48.392;9.950;2023-09-18T07:37:24;21.30;99.90
580;DHT22;276;48.392;9.950;2023-09-18T07:39:55;21.30;99.90
580;DHT22;276;48.392;9.950;2023-09-18T07:42:27;21.40;99.90
580;DHT22;276;48.392;9.950;2023-09-18T07:44:54;21.40;99.90
580;DHT22;276;48.392;9.950;2023-09-18T07:47:23;21.50;99.90
580;DHT22;276;48.392;9.950;2023-09-18T07:49:50;21.40;99.90
580;DHT22;276;48.392;9.950;2023-09-18T07:52:18;21.40;99.90
580;DHT22;276;48.392;9.950;2023-09-18T07:54:46;21.30;99.90
580;DHT22;276;48.392;9.950;2023-09-18T07:57:17;21.30;99.90
580;DHT22;276;48.392;9.950;2023-09-18T07:59:46;21.30;99.90
580;DHT22;276;48.392;9.950;2023-09-18T08:02:14;21.40;99.90
580;DHT22;276;48.392;9.950;2023-09-18T08:04:45;21.40;99.90
580;DHT22;276;48.392;9.950;2023-09-18T08:07:11;21.40;99.90
580;DHT22;276;48.392;9.950;2023-09-18T08:09:41;21.40;99.90
580;DHT22;276;48.392;9.950;2023-09-18T08:12:08;21.20;99.90
580;DHT22;276;48.392;9.950;2023-09-18T08:14:37;21.10;99.90
580;DHT22;276;48.392;9.950;2023-09-18T08:17:05;21.10;99.90
580;DHT22;276;48.392;9.950;2023-09-18T08:19:31;21.00;99.90
580;DHT22;276;48.392;9.950;2023-09-18T08:22:05;21.00;99.90
580;DHT22;276;48.392;9.950;2023-09-18T08:24:31;21.00;99.90
580;DHT22;276;48.392;9.950;2023-09-18T08:26:57;20.90;99.90
580;DHT22;276;48.392;9.950;2023-09-18T08:29:29;20.90;99.90
580;DHT22;276;48.392;9.950;2023-09-18T08:31:54;20.90;99.90
580;DHT22;276;48.392;9.950;2023-09-18T08:34:22;20.90;99.90
580;DHT22;276;48.392;9.950;2023-09-18T08:36:48;20.90;99.90
580;DHT22;276;48.392;9.950;2023-09-18T08:39:16;21.00;99.90
580;DHT22;276;48.392;9.950;2023-09-18T08:41:45;21.00;99.90
580;DHT22;276;48.392;9.950;2023-09-18T08:44:20;21.00;99.90
580;DHT22;276;48.392;9.950;2023-09-18T08:46:52;21.00;99.90
580;DHT22;276;48.392;9.950;2023-09-18T08:49:18;21.10;99.90
580;DHT22;276;48.392;9.950;2023-09-18T08:51:45;21.10;99.90
580;DHT22;276;48.392;9.950;2023-09-18T08:54:12;21.10;99.90
580;DHT22;276;48.392;9.950;2023-09-18T08:56:38;21.10;99.90
580;DHT22;276;48.392;9.950;2023-09-18T08:59:08;21.20;99.90
580;DHT22;276;48.392;9.950;2023-09-18T09:01:39;21.20;99.90
580;DHT22;276;48.392;9.950;2023-09-18T09:04:05;21.20;99.90
580;DHT22;276;48.392;9.950;2023-09-18T09:06:31;21.20;99.90
580;DHT22;276;48.392;9.950;2023-09-18T09:08:57;21.20;99.90
580;DHT22;276;48.392;9.950;2023-09-18T09:11:22;21.30;99.90
580;DHT22;276;48.392;9.950;2023-09-18T09:14:11;21.30;99.90
580;DHT22;276;48.392;9.950;2023-09-18T09:16:50;21.40;99.90
580;DHT22;276;48.392;9.950;2023-09-18T09:19:17;21.50;99.90
580;DHT22;276;48.392;9.950;2023-09-18T09:21:43;21.60;99.90
580;DHT22;276;48.392;9.950;2023-09-18T09:24:12;21.60;99.90
580;DHT22;276;48.392;9.950;2023-09-18T09:26:43;21.70;99.90
580;DHT22;276;48.392;9.950;2023-09-18T09:29:16;21.80;99.90
580;DHT22;276;48.392;9.950;2023-09-18T09:31:43;21.80;99.90
580;DHT22;276;48.392;9.950;2023-09-18T09:34:12;21.80;99.90
580;DHT22;276;48.392;9.950;2023-09-18T09:36:58;21.90;99.90
580;DHT22;276;48.392;9.950;2023-09-18T09:39:29;21.90;99.90
580;DHT22;276;48.392;9.950;2023-09-18T09:42:01;21.90;99.90
580;DHT22;276;48.392;9.950;2023-09-18T09:44:31;22.00;99.90
580;DHT22;276;48.392;9.950;2023-09-18T09:47:00;22.00;99.90
580;DHT22;276;48.392;9.950;2023-09-18T09:49:25;22.00;99.90
580;DHT22;276;48.392;9.950;2023-09-18T09:51:59;22.00;99.90
580;DHT22;276;48.392;9.950;2023-09-18T09:54:35;22.00;99.90
580;DHT22;276;48.392;9.950;2023-09-18T09:57:05;22.00;99.90
580;DHT22;276;48.392;9.950;2023-09-18T09:59:35;22.00;99.90
580;DHT22;276;48.392;9.950;2023-09-18T10:02:03;21.90;99.90
580;DHT22;276;48.392;9.950;2023-09-18T10:04:34;21.80;99.90
580;DHT22;276;48.392;9.950;2023-09-18T10:07:08;21.80;99.90
580;DHT22;276;48.392;9.950;2023-09-18T10:09:39;21.80;99.90
580;DHT22;276;48.392;9.950;2023-09-18T10:12:15;21.70;99.90
580;DHT22;276;48.392;9.950;2023-09-18T10:14:47;21.70;99.90
580;DHT22;276;48.392;9.950;2023-09-18T10:17:18;21.60;99.90
580;DHT22;276;48.392;9.950;2023-09-18T10:20:11;21.50;99.90
580;DHT22;276;48.392;9.950;2023-09-18T10:22:53;21.40;99.90
580;DHT22;276;48.392;9.950;2023-09-18T10:25:23;21.40;99.90
580;DHT22;276;48.392;9.950;2023-09-18T10:27:55;21.40;99.90
580;DHT22;276;48.392;9.950;2023-09-18T10:30:26;21.40;99.90
580;DHT22;276;48.392;9.950;2023-09-18T10:32:52;21.30;99.90
580;DHT22;276;48.392;9.950;2023-09-18T10:35:21;21.30;99.90
580;DHT22;276;48.392;9.950;2023-09-18T10:37:52;21.20;99.90
580;DHT22;276;48.392;9.950;2023-09-18T10:40:20;21.00;99.90
580;DHT22;276;48.392;9.950;2023-09-18T10:42:48;21.00;99.90
580;DHT22;276;48.392;9.950;2023-09-18T10:45:18;20.80;99.90
580;DHT22;276;48.392;9.950;2023-09-18T10:47:47;20.70;99.90
580;DHT22;276;48.392;9.950;2023-09-18T10:50:25;20.50;99.90
580;DHT22;276;48.392;9.950;2023-09-18T10:52:53;20.50;99.90
580;DHT22;276;48.392;9.950;2023-09-18T10:55:23;20.50;99.90
580;DHT22;276;48.392;9.950;2023-09-18T10:57:56;20.50;99.90
580;DHT22;276;48.392;9.950;2023-09-18T11:00:29;20.50;99.90
580;DHT22;276;48.392;9.950;2023-09-18T11:03:16;20.40;99.90
580;DHT22;276;48.392;9.950;2023-09-18T11:05:48;20.40;99.90
580;DHT22;276;48.392;9.950;2023-09-18T11:08:46;20.40;99.90
580;DHT22;276;48.392;9.950;2023-09-18T11:11:17;20.40;99.90
580;DHT22;276;48.392;9.950;2023-09-18T11:13:47;20.30;99.90
580;DHT22;276;48.392;9.950;2023-09-18T11:21:26;20.20;99.90
580;DHT22;276;48.392;9.950;2023-09-18T11:26:33;20.20;99.90
580;DHT22;276;48.392;9.950;2023-09-18T11:29:07;20.20;99.90
580;DHT22;276;48.392;9.950;2023-09-18T11:31:56;20.20;99.90
580;DHT22;276;48.392;9.950;2023-09-18T11:34:23;20.20;99.90
580;DHT22;276;48.392;9.950;2023-09-18T11:36:50;20.10;99.90
580;DHT22;276;48.392;9.950;2023-09-18T11:39:34;20.10;99.90
580;DHT22;276;48.392;9.950;2023-09-18T11:42:17;20.10;99.90
580;DHT22;276;48.392;9.950;2023-09-18T11:44:46;20.00;99.90
580;DHT22;276;48.392;9.950;2023-09-18T11:47:16;20.00;99.90
580;DHT22;276;48.392;9.950;2023-09-18T11:49:58;20.00;99.90
580;DHT22;276;48.392;9.950;2023-09-18T11:52:32;19.90;99.90
580;DHT22;276;48.392;9.950;2023-09-18T11:55:02;19.80;99.90
580;DHT22;276;48.392;9.950;2023-09-18T11:57:28;19.80;99.90
580;DHT22;276;48.392;9.950;2023-09-18T11:59:55;19.80;99.90
580;DHT22;276;48.392;9.950;2023-09-18T12:02:41;19.70;99.90
580;DHT22;276;48.392;9.950;2023-09-18T12:05:15;19.70;99.90
580;DHT22;276;48.392;9.950;2023-09-18T12:07:43;19.70;99.90
580;DHT22;276;48.392;9.950;2023-09-18T12:10:15;19.70;99.90
580;DHT22;276;48.392;9.950;2023-09-18T12:12:44;19.70;99.90
580;DHT22;276;48.392;9.950;2023-09-18T12:15:16;19.60;99.90
580;DHT22;276;48.392;9.950;2023-09-18T12:17:45;19.60;99.90
580;DHT22;276;48.392;9.950;2023-09-18T12:20:18;19.60;99.90
580;DHT22;276;48.392;9.950;2023-09-18T12:22:50;19.60;99.90
580;DHT22;276;48.392;9.950;2023-09-18T12:25:19;19.60;99.90
580;DHT22;276;48.392;9.950;2023-09-18T12:27:44;19.50;99.90
580;DHT22;276;48.392;9.950;2023-09-18T12:30:11;19.50;99.90
580;DHT22;276;48.392;9.950;2023-09-18T12:32:40;19.40;99.90
580;DHT22;276;48.392;9.950;2023-09-18T12:35:06;19.50;99.90
580;DHT22;276;48.392;9.950;2023-09-18T12:37:39;19.40;99.90
580;DHT22;276;48.392;9.950;2023-09-18T12:40:06;19.40;99.90
580;DHT22;276;48.392;9.950;2023-09-18T12:42:37;19.40;99.90
580;DHT22;276;48.392;9.950;2023-09-18T12:45:09;19.40;99.90
580;DHT22;276;48.392;9.950;2023-09-18T12:47:37;19.40;99.90
580;DHT22;276;48.392;9.950;2023-09-18T12:50:05;19.40;99.90
580;DHT22;276;48.392;9.950;2023-09-18T12:52:32;19.50;99.90
580;DHT22;276;48.392;9.950;2023-09-18T12:54:58;19.60;99.90
580;DHT22;276;48.392;9.950;2023-09-18T12:57:26;19.60;99.90
580;DHT22;276;48.392;9.950;2023-09-18T12:59:52;19.70;99.90
580;DHT22;276;48.392;9.950;2023-09-18T13:02:19;19.70;99.90
580;DHT22;276;48.392;9.950;2023-09-18T13:04:56;19.80;99.90
580;DHT22;276;48.392;9.950;2023-09-18T13:07:23;19.80;99.90
580;DHT22;276;48.392;9.950;2023-09-18T13:10:07;19.80;99.90
580;DHT22;276;48.392;9.950;2023-09-18T13:13:02;19.80;99.90
580;DHT22;276;48.392;9.950;2023-09-18T13:15:31;19.80;99.90
580;DHT22;276;48.392;9.950;2023-09-18T13:17:59;19.80;99.90
580;DHT22;276;48.392;9.950;2023-09-18T13:20:29;19.80;99.90
580;DHT22;276;48.392;9.950;2023-09-18T13:22:57;19.80;99.90
580;DHT22;276;48.392;9.950;2023-09-18T13:25:38;19.80;99.90
580;DHT22;276;48.392;9.950;2023-09-18T13:28:06;19.80;99.90
580;DHT22;276;48.392;9.950;2023-09-18T13:30:33;19.80;99.90
580;DHT22;276;48.392;9.950;2023-09-18T13:35:37;19.70;99.90
580;DHT22;276;48.392;9.950;2023-09-18T13:38:04;19.60;99.90
580;DHT22;276;48.392;9.950;2023-09-18T13:40:34;19.60;99.90
580;DHT22;276;48.392;9.950;2023-09-18T13:43:01;19.60;99.90
580;DHT22;276;48.392;9.950;2023-09-18T13:45:29;19.60;99.90
580;DHT22;276;48.392;9.950;2023-09-18T13:47:58;19.60;99.90
580;DHT22;276;48.392;9.950;2023-09-18T13:50:24;19.60;99.90
580;DHT22;276;48.392;9.950;2023-09-18T13:52:50;19.60;99.90
580;DHT22;276;48.392;9.950;2023-09-18T13:55:16;19.60;99.90
580;DHT22;276;48.392;9.950;2023-09-18T13:57:42;19.70;99.90
580;DHT22;276;48.392;9.950;2023-09-18T14:00:10;19.70;99.90
580;DHT22;276;48.392;9.950;2023-09-18T14:02:38;19.80;99.90
580;DHT22;276;48.392;9.950;2023-09-18T14:05:09;19.80;99.90
580;DHT22;276;48.392;9.950;2023-09-18T14:07:37;19.90;99.90
580;DHT22;276;48.392;9.950;2023-09-18T14:10:10;19.90;99.90
580;DHT22;276;48.392;9.950;2023-09-18T14:12:39;19.90;99.90
580;DHT22;276;48.392;9.950;2023-09-18T14:15:06;20.00;99.90
580;DHT22;276;48.392;9.950;2023-09-18T14:17:33;20.00;99.90
580;DHT22;276;48.392;9.950;2023-09-18T14:19:59;20.10;99.90
580;DHT22;276;48.392;9.950;2023-09-18T14:22:27;20.20;99.90
580;DHT22;276;48.392;9.950;2023-09-18T14:24:53;20.20;99.90
580;DHT22;276;48.392;9.950;2023-09-18T14:27:21;20.20;99.90
580;DHT22;276;48.392;9.950;2023-09-18T14:29:47;20.20;99.90
580;DHT22;276;48.392;9.950;2023-09-18T14:32:15;20.20;99.90
580;DHT22;276;48.392;9.950;2023-09-18T14:34:44;20.20;99.90
580;DHT22;276;48.392;9.950;2023-09-18T14:37:11;20.30;99.90
580;DHT22;276;48.392;9.950;2023-09-18T14:39:36;20.30;99.90
580;DHT22;276;48.392;9.950;2023-09-18T14:42:02;20.20;99.90
580;DHT22;276;48.392;9.950;2023-09-18T14:44:30;20.20;99.90
580;DHT22;276;48.392;9.950;2023-09-18T14:46:58;20.20;99.90
580;DHT22;276;48.392;9.950;2023-09-18T14:49:25;20.30;99.90
580;DHT22;276;48.392;9.950;2023-09-18T14:51:53;20.30;99.90
580;DHT22;276;48.392;9.950;2023-09-18T14:54:19;20.40;99.90
580;DHT22;276;48.392;9.950;2023-09-18T14:56:47;20.40;99.90
580;DHT22;276;48.392;9.950;2023-09-18T14:59:13;20.50;99.90
580;DHT22;276;48.392;9.950;2023-09-18T15:01:38;20.50;99.90
580;DHT22;276;48.392;9.950;2023-09-18T15:04:04;20.50;99.90
580;DHT22;276;48.392;9.950;2023-09-18T15:06:34;20.50;99.90
580;DHT22;276;48.392;9.950;2023-09-18T15:09:00;20.60;99.90
580;DHT22;276;48.392;9.950;2023-09-18T15:11:26;20.60;99.90
580;DHT22;276;48.392;9.950;2023-09-18T15:13:52;20.60;99.90
580;DHT22;276;48.392;9.950;2023-09-18T15:16:18;20.60;99.90
580;DHT22;276;48.392;9.950;2023-09-18T15:18:46;20.70;99.90
580;DHT22;276;48.392;9.950;2023-09-18T15:21:11;20.70;99.90
580;DHT22;276;48.392;9.950;2023-09-18T15:23:37;20.80;99.90
580;DHT22;276;48.392;9.950;2023-09-18T15:26:03;20.80;99.90
580;DHT22;276;48.392;9.950;2023-09-18T15:28:28;20.80;99.90
580;DHT22;276;48.392;9.950;2023-09-18T15:30:55;20.80;99.90
580;DHT22;276;48.392;9.950;2023-09-18T15:33:21;20.70;99.90
580;DHT22;276;48.392;9.950;2023-09-18T15:35:51;20.70;99.90
580;DHT22;276;48.392;9.950;2023-09-18T15:38:20;20.80;99.90
580;DHT22;276;48.392;9.950;2023-09-18T15:40:46;20.70;99.90
580;DHT22;276;48.392;9.950;2023-09-18T15:43:12;20.70;99.90
580;DHT22;276;48.392;9.950;2023-09-18T15:45:37;20.60;99.90
580;DHT22;276;48.392;9.950;2023-09-18T15:48:07;20.70;99.90
580;DHT22;276;48.392;9.950;2023-09-18T15:50:32;20.70;99.90
580;DHT22;276;48.392;9.950;2023-09-18T15:53:00;20.70;99.90
580;DHT22;276;48.392;9.950;2023-09-18T15:55:26;20.70;99.90
580;DHT22;276;48.392;9.950;2023-09-18T15:57:54;20.70;99.90
580;DHT22;276;48.392;9.950;2023-09-18T16:00:20;20.70;99.90
580;DHT22;276;48.392;9.950;2023-09-18T16:02:45;20.80;99.90
580;DHT22;276;48.392;9.950;2023-09-18T16:05:11;20.80;99.90
580;DHT22;276;48.392;9.950;2023-09-18T16:07:38;20.80;99.90
580;DHT22;276;48.392;9.950;2023-09-18T16:10:07;20.80;99.90
580;DHT22;276;48.392;9.950;2023-09-18T16:12:34;20.80;99.90
580;DHT22;276;48.392;9.950;2023-09-18T16:15:01;20.80;99.90
580;DHT22;276;48.392;9.950;2023-09-18T16:17:28;20.80;99.90
580;DHT22;276;48.392;9.950;2023-09-18T16:19:54;20.80;99.90
580;DHT22;276;48.392;9.950;2023-09-18T16:22:20;20.80;99.90
580;DHT22;276;48.392;9.950;2023-09-18T16:24:51;20.90;99.90
580;DHT22;276;48.392;9.950;2023-09-18T16:27:17;20.90;99.90
580;DHT22;276;48.392;9.950;2023-09-18T16:29:45;20.90;99.90
580;DHT22;276;48.392;9.950;2023-09-18T16:32:13;20.90;99.90
580;DHT22;276;48.392;9.950;2023-09-18T16:34:38;20.90;99.90
580;DHT22;276;48.392;9.950;2023-09-18T16:37:04;20.90;99.90
580;DHT22;276;48.392;9.950;2023-09-18T16:39:30;20.90;99.90
580;DHT22;276;48.392;9.950;2023-09-18T16:41:58;20.90;99.90
580;DHT22;276;48.392;9.950;2023-09-18T16:44:27;20.90;99.90
580;DHT22;276;48.392;9.950;2023-09-18T16:46:53;21.00;99.90
580;DHT22;276;48.392;9.950;2023-09-18T16:49:20;20.90;99.90
580;DHT22;276;48.392;9.950;2023-09-18T16:51:50;21.00;99.90
580;DHT22;276;48.392;9.950;2023-09-18T16:54:18;20.90;99.90